createdAt,value
2023-11-15T00:00:11.289Z,75.46
2023-11-15T00:02:59.024Z,75.43
2023-11-15T00:05:28.912Z,75.30
2023-11-15T00:07:56.439Z,75.56
2023-11-15T00:10:24.849Z,75.51
2023-11-15T00:12:52.737Z,75.82
2023-11-15T00:15:20.074Z,75.67
2023-11-15T00:17:48.794Z,75.72
2023-11-15T00:20:16.910Z,75.90
2023-11-15T00:22:44.280Z,75.93
2023-11-15T00:25:12.688Z,76.16
2023-11-15T00:27:40.424Z,76.17
2023-11-15T00:30:11.446Z,76.27
2023-11-15T00:32:39.107Z,76.21
2023-11-15T00:35:07.776Z,76.16
2023-11-15T00:37:36.879Z,76.16
2023-11-15T00:40:05.499Z,76.16
2023-11-15T00:42:33.441Z,76.18
2023-11-15T00:45:01.870Z,76.03
2023-11-15T00:47:29.728Z,76.10
2023-11-15T00:50:22.524Z,76.28
2023-11-15T00:52:50.070Z,76.48
2023-11-15T00:55:18.900Z,76.59
2023-11-15T00:57:46.773Z,76.76
2023-11-15T01:00:25.267Z,76.75
2023-11-15T01:02:58.220Z,76.76
2023-11-15T01:05:29.975Z,76.74
2023-11-15T01:08:00.884Z,76.88
2023-11-15T01:10:28.485Z,76.85
2023-11-15T01:12:56.076Z,76.82
2023-11-15T01:15:23.804Z,76.65
2023-11-15T01:17:51.922Z,76.84
2023-11-15T01:20:19.613Z,76.93
2023-11-15T01:22:47.415Z,77.05
2023-11-15T01:25:15.070Z,76.94
2023-11-15T01:27:42.834Z,76.98
2023-11-15T01:30:10.966Z,77.14
2023-11-15T01:32:38.585Z,76.99
2023-11-15T01:35:07.061Z,77.02
2023-11-15T01:37:34.481Z,77.24
2023-11-15T01:40:02.598Z,77.39
2023-11-15T01:42:30.534Z,77.26
2023-11-15T01:44:57.821Z,77.25
2023-11-15T01:47:26.204Z,77.28
2023-11-15T01:49:54.717Z,77.14
2023-11-15T01:52:22.042Z,77.31
2023-11-15T01:54:49.636Z,77.36
2023-11-15T01:57:17.396Z,77.33
2023-11-15T01:59:45.736Z,77.47
2023-11-15T02:02:13.326Z,77.46
2023-11-15T02:04:41.000Z,77.55
2023-11-15T02:07:09.761Z,77.63
2023-11-15T02:09:37.808Z,77.68
2023-11-15T02:12:05.632Z,77.68
2023-11-15T02:14:33.103Z,77.58
2023-11-15T02:17:00.927Z,77.69
2023-11-15T02:19:30.201Z,77.80
2023-11-15T02:21:58.325Z,77.75
2023-11-15T02:24:25.990Z,77.41
2023-11-15T02:26:54.304Z,77.26
2023-11-15T02:29:22.059Z,77.42
2023-11-15T02:31:49.676Z,77.52
2023-11-15T02:34:17.452Z,77.55
2023-11-15T02:36:44.781Z,77.70
2023-11-15T02:39:12.124Z,77.64
2023-11-15T02:41:43.247Z,77.62
2023-11-15T02:44:13.209Z,77.60
2023-11-15T02:46:40.830Z,77.80
2023-11-15T02:49:08.676Z,77.73
2023-11-15T02:51:36.717Z,77.65
2023-11-15T02:54:06.978Z,77.69
2023-11-15T02:56:34.402Z,77.75
2023-11-15T02:59:01.696Z,77.63
2023-11-15T03:01:29.531Z,77.57
2023-11-15T03:03:58.062Z,77.58
2023-11-15T03:06:25.753Z,77.67
2023-11-15T03:08:53.130Z,77.73
2023-11-15T03:11:20.725Z,77.70
2023-11-15T03:13:48.366Z,77.62
2023-11-15T03:16:15.833Z,77.59
2023-11-15T03:18:44.171Z,77.70
2023-11-15T03:21:11.990Z,77.96
2023-11-15T03:23:39.984Z,78.01
2023-11-15T03:26:07.710Z,78.06
2023-11-15T03:28:35.830Z,78.05
2023-11-15T03:31:03.541Z,78.04
2023-11-15T03:33:31.083Z,78.15
2023-11-15T03:35:58.588Z,78.12
2023-11-15T03:38:26.087Z,78.20
2023-11-15T03:40:54.167Z,78.27
2023-11-15T03:43:21.499Z,78.27
2023-11-15T03:45:49.744Z,78.38
2023-11-15T03:48:17.535Z,78.44
2023-11-15T03:50:45.104Z,78.22
2023-11-15T03:53:13.481Z,78.31
2023-11-15T03:55:43.203Z,78.39
2023-11-15T03:58:11.876Z,78.41
2023-11-15T04:00:39.299Z,78.51
2023-11-15T04:03:07.599Z,78.58
2023-11-15T04:05:35.292Z,78.71
2023-11-15T04:08:03.459Z,78.60
2023-11-15T04:10:31.406Z,78.66
2023-11-15T04:12:58.771Z,78.81
2023-11-15T04:15:26.126Z,78.93
2023-11-15T04:17:54.381Z,78.77
2023-11-15T04:20:23.150Z,78.88
2023-11-15T04:22:50.739Z,78.82
2023-11-15T04:25:18.621Z,78.90
2023-11-15T04:27:45.898Z,78.98
2023-11-15T04:30:14.176Z,78.91
2023-11-15T04:32:42.045Z,78.90
2023-11-15T04:35:09.430Z,78.91
2023-11-15T04:37:36.764Z,78.85
2023-11-15T04:40:07.890Z,78.98
2023-11-15T04:42:35.212Z,79.18
2023-11-15T04:45:03.530Z,79.21
2023-11-15T04:47:32.484Z,79.36
2023-11-15T04:49:59.908Z,79.45
2023-11-15T04:52:27.396Z,79.35
2023-11-15T04:54:55.967Z,79.19
2023-11-15T04:57:26.350Z,79.21
2023-11-15T04:59:56.127Z,79.30
2023-11-15T05:02:24.524Z,79.42
2023-11-15T05:04:53.482Z,79.43
2023-11-15T05:07:24.203Z,79.45
2023-11-15T05:09:51.801Z,79.57
2023-11-15T05:12:19.242Z,79.50
2023-11-15T05:14:47.186Z,79.35
2023-11-15T05:17:15.717Z,79.37
2023-11-15T05:19:43.157Z,79.49
2023-11-15T05:22:10.511Z,79.50
2023-11-15T05:24:38.573Z,79.53
2023-11-15T05:27:06.465Z,79.59
2023-11-15T05:29:33.952Z,79.62
2023-11-15T05:32:02.267Z,79.71
2023-11-15T05:34:29.853Z,79.74
2023-11-15T05:36:57.211Z,79.72
2023-11-15T05:39:25.269Z,79.75
2023-11-15T05:41:52.770Z,79.80
2023-11-15T05:44:20.048Z,79.77
2023-11-15T05:46:47.913Z,79.73
2023-11-15T05:49:15.678Z,79.77
2023-11-15T05:51:42.978Z,79.84
2023-11-15T05:54:11.146Z,79.94
2023-11-15T05:56:38.812Z,79.91
2023-11-15T05:59:06.158Z,79.91
2023-11-15T06:01:37.990Z,80.03
2023-11-15T06:04:08.872Z,80.11
2023-11-15T06:06:36.312Z,80.25
2023-11-15T06:09:05.593Z,80.11
2023-11-15T06:11:33.590Z,80.01
2023-11-15T06:14:01.090Z,80.13
2023-11-15T06:16:28.798Z,80.27
2023-11-15T06:18:56.039Z,80.24
2023-11-15T06:21:23.483Z,80.42
2023-11-15T06:23:52.434Z,80.41
2023-11-15T06:26:20.657Z,80.37
2023-11-15T06:28:49.928Z,80.27
2023-11-15T06:31:19.584Z,80.29
2023-11-15T06:33:47.255Z,80.34
2023-11-15T06:36:16.715Z,80.48
2023-11-15T06:38:45.118Z,80.49
2023-11-15T06:41:16.042Z,80.38
2023-11-15T06:43:43.530Z,80.43
2023-11-15T06:46:18.438Z,80.47
2023-11-15T06:48:47.900Z,80.58
2023-11-15T06:51:16.394Z,80.61
2023-11-15T06:53:47.087Z,80.81
2023-11-15T06:56:14.805Z,80.87
2023-11-15T06:58:43.198Z,80.88
2023-11-15T07:01:13.001Z,81.05
2023-11-15T07:03:47.639Z,80.97
2023-11-15T07:06:16.219Z,80.89
2023-11-15T07:08:44.014Z,80.93
2023-11-15T07:11:11.625Z,80.93
2023-11-15T07:13:39.736Z,81.05
2023-11-15T07:16:10.478Z,81.11
2023-11-15T07:18:39.016Z,81.26
2023-11-15T07:21:08.159Z,81.19
2023-11-15T07:23:35.868Z,81.24
2023-11-15T07:26:03.818Z,81.12
2023-11-15T07:28:31.326Z,81.21
2023-11-15T07:31:01.534Z,81.24
2023-11-15T07:33:28.846Z,81.38
2023-11-15T07:35:57.237Z,81.43
2023-11-15T07:38:25.921Z,81.34
2023-11-15T07:40:53.275Z,81.32
2023-11-15T07:43:20.867Z,81.42
2023-11-15T07:45:53.057Z,81.44
2023-11-15T07:48:21.688Z,81.49
2023-11-15T07:50:49.548Z,81.33
2023-11-15T07:53:17.310Z,81.36
2023-11-15T07:55:45.164Z,81.41
2023-11-15T07:58:12.656Z,81.33
2023-11-15T08:00:41.514Z,81.42
2023-11-15T08:03:13.591Z,81.50
2023-11-15T08:05:41.486Z,81.53
2023-11-15T08:08:11.413Z,81.56
2023-11-15T08:10:43.154Z,81.64
2023-11-15T08:13:10.619Z,81.57
2023-11-15T08:15:40.309Z,81.61
2023-11-15T08:18:09.607Z,81.62
2023-11-15T08:20:37.019Z,81.62
2023-11-15T08:23:06.076Z,81.79
2023-11-15T08:25:33.349Z,81.83
2023-11-15T08:28:02.968Z,81.81
2023-11-15T08:30:31.681Z,81.87
2023-11-15T08:33:06.918Z,81.85
2023-11-15T08:35:34.690Z,81.86
2023-11-15T08:38:02.086Z,81.72
2023-11-15T08:40:29.942Z,81.78
2023-11-15T08:42:58.716Z,81.86
2023-11-15T08:45:26.653Z,81.83
2023-11-15T08:47:57.913Z,81.64
2023-11-15T08:50:25.891Z,81.90
2023-11-15T08:52:55.391Z,81.85
2023-11-15T08:55:22.792Z,81.86
2023-11-15T08:57:52.152Z,81.90
2023-11-15T09:00:33.018Z,82.03
2023-11-15T09:03:01.629Z,82.01
2023-11-15T09:05:29.914Z,81.99
2023-11-15T09:07:57.276Z,82.14
2023-11-15T09:10:25.021Z,82.07
2023-11-15T09:12:53.174Z,82.13
2023-11-15T09:15:21.976Z,82.10
2023-11-15T09:17:54.719Z,82.08
2023-11-15T09:20:26.866Z,82.10
2023-11-15T09:22:58.672Z,82.23
2023-11-15T09:25:27.787Z,82.15
2023-11-15T09:27:57.106Z,82.09
2023-11-15T09:30:27.988Z,82.02
2023-11-15T09:32:55.467Z,82.18
2023-11-15T09:35:30.003Z,82.07
2023-11-15T09:37:58.533Z,82.01
2023-11-15T09:40:29.030Z,82.14
2023-11-15T09:43:01.151Z,82.28
2023-11-15T09:45:30.893Z,82.19
2023-11-15T09:48:01.776Z,82.07
2023-11-15T09:50:34.338Z,81.70
2023-11-15T09:53:09.007Z,81.80
2023-11-15T09:55:37.340Z,81.79
2023-11-15T09:58:04.897Z,81.20
2023-11-15T10:00:33.183Z,81.43
2023-11-15T10:03:01.776Z,81.37
2023-11-15T10:05:29.851Z,81.36
2023-11-15T10:08:16.351Z,81.51
2023-11-15T10:10:48.432Z,81.51
2023-11-15T10:13:19.367Z,81.52
2023-11-15T10:15:47.144Z,81.51
2023-11-15T10:18:29.172Z,81.44
2023-11-15T10:21:09.858Z,81.45
2023-11-15T10:23:39.132Z,81.25
2023-11-15T10:26:07.424Z,81.07
2023-11-15T10:28:40.287Z,81.12
2023-11-15T10:31:22.238Z,81.24
2023-11-15T10:33:51.974Z,81.17
2023-11-15T10:36:22.322Z,81.13
2023-11-15T10:38:52.184Z,80.96
2023-11-15T10:41:22.385Z,80.81
2023-11-15T10:43:51.035Z,80.81
2023-11-15T10:46:37.350Z,80.94
2023-11-15T10:49:07.811Z,80.83
2023-11-15T10:51:49.380Z,80.64
2023-11-15T10:54:18.073Z,80.57
2023-11-15T10:56:51.336Z,80.58
2023-11-15T10:59:20.064Z,80.45
2023-11-15T11:01:47.583Z,80.37
2023-11-15T11:04:16.571Z,80.28
2023-11-15T11:07:10.912Z,80.02
2023-11-15T11:09:46.125Z,79.98
2023-11-15T11:12:17.801Z,79.99
2023-11-15T11:14:47.194Z,80.08
2023-11-15T11:17:33.275Z,80.07
2023-11-15T11:20:10.504Z,79.87
2023-11-15T11:23:28.449Z,79.86
2023-11-15T11:26:42.572Z,79.40
2023-11-15T11:29:11.199Z,79.32
2023-11-15T11:31:39.610Z,79.57
2023-11-15T11:34:20.685Z,79.46
2023-11-15T11:36:50.501Z,79.34
2023-11-15T11:39:44.127Z,79.06
2023-11-15T11:42:28.056Z,79.07
2023-11-15T11:44:56.387Z,78.64
2023-11-15T11:47:24.338Z,78.51
2023-11-15T11:49:53.198Z,78.52
2023-11-15T11:52:20.947Z,78.66
2023-11-15T11:54:53.526Z,78.28
2023-11-15T11:57:27.499Z,78.21
2023-11-15T12:00:12.088Z,78.07
2023-11-15T12:02:45.209Z,77.65
2023-11-15T12:05:14.414Z,77.59
2023-11-15T12:07:47.253Z,77.21
2023-11-15T12:10:17.631Z,77.01
2023-11-15T12:13:04.063Z,76.98
2023-11-15T12:15:32.882Z,76.63
2023-11-15T12:18:01.503Z,76.22
2023-11-15T12:20:40.585Z,75.98
2023-11-15T12:23:09.952Z,76.02
2023-11-15T12:25:52.887Z,75.99
2023-11-15T12:28:31.765Z,76.03
2023-11-15T12:31:04.339Z,76.01
2023-11-15T12:33:34.826Z,76.11
2023-11-15T12:36:05.465Z,75.83
2023-11-15T12:38:34.171Z,75.75
2023-11-15T12:41:06.741Z,75.76
2023-11-15T12:43:36.040Z,75.52
2023-11-15T12:46:19.841Z,75.35
2023-11-15T12:48:50.449Z,75.48
2023-11-15T12:51:19.163Z,75.37
2023-11-15T12:53:46.555Z,75.17
2023-11-15T12:56:18.424Z,75.18
2023-11-15T12:58:47.389Z,75.30
2023-11-15T13:01:20.089Z,75.12
2023-11-15T13:03:57.527Z,75.14
2023-11-15T13:06:30.771Z,74.93
2023-11-15T13:09:03.129Z,74.66
2023-11-15T13:11:30.845Z,74.69
2023-11-15T13:13:58.863Z,74.74
2023-11-15T13:16:26.252Z,74.69
2023-11-15T13:18:54.744Z,74.34
2023-11-15T13:21:25.023Z,74.13
2023-11-15T13:23:53.823Z,73.69
2023-11-15T13:26:22.193Z,73.71
2023-11-15T13:28:49.720Z,73.09
2023-11-15T13:31:24.362Z,73.37
2023-11-15T13:33:53.213Z,73.39
2023-11-15T13:36:21.180Z,72.94
2023-11-15T13:38:49.912Z,73.26
2023-11-15T13:41:22.948Z,73.37
2023-11-15T13:43:53.604Z,73.34
2023-11-15T13:46:23.445Z,73.14
2023-11-15T13:48:52.472Z,73.15
2023-11-15T13:51:20.644Z,73.01
2023-11-15T13:53:48.421Z,73.15
2023-11-15T13:56:16.111Z,73.18
2023-11-15T13:58:43.674Z,73.07
2023-11-15T14:01:11.800Z,73.02
2023-11-15T14:03:39.698Z,72.96
2023-11-15T14:06:08.243Z,72.87
2023-11-15T14:08:51.031Z,72.95
2023-11-15T14:11:26.279Z,72.92
2023-11-15T14:13:53.882Z,72.90
2023-11-15T14:16:21.538Z,72.94
2023-11-15T14:18:51.035Z,72.76
2023-11-15T14:21:20.782Z,72.66
2023-11-15T14:23:48.243Z,72.02
2023-11-15T14:26:16.001Z,72.10
2023-11-15T14:28:44.310Z,72.29
2023-11-15T14:31:12.437Z,72.22
2023-11-15T14:33:40.731Z,72.20
2023-11-15T14:36:11.588Z,72.22
2023-11-15T14:38:38.915Z,72.14
2023-11-15T14:41:06.609Z,72.00
2023-11-15T14:43:34.713Z,71.89
2023-11-15T14:46:02.823Z,71.93
2023-11-15T14:48:31.021Z,71.82
2023-11-15T14:51:00.939Z,71.80
2023-11-15T14:53:28.270Z,71.67
2023-11-15T14:55:55.926Z,71.90
2023-11-15T14:58:25.793Z,71.72
2023-11-15T15:00:56.074Z,71.64
2023-11-15T15:03:25.703Z,71.61
2023-11-15T15:05:54.178Z,71.65
2023-11-15T15:08:22.987Z,71.54
2023-11-15T15:10:54.286Z,71.55
2023-11-15T15:13:22.268Z,71.54
2023-11-15T15:15:49.855Z,71.60
2023-11-15T15:18:22.143Z,71.54
2023-11-15T15:20:54.360Z,71.46
2023-11-15T15:23:21.923Z,71.35
2023-11-15T15:25:49.182Z,71.22
2023-11-15T15:28:16.583Z,71.26
2023-11-15T15:30:44.649Z,71.20
2023-11-15T15:33:12.226Z,71.26
2023-11-15T15:35:39.810Z,71.29
2023-11-15T15:38:10.505Z,71.41
2023-11-15T15:40:40.934Z,71.01
2023-11-15T15:43:09.200Z,71.02
2023-11-15T15:45:36.669Z,71.07
2023-11-15T15:48:05.475Z,70.98
2023-11-15T15:50:33.631Z,71.01
2023-11-15T15:53:01.206Z,71.17
2023-11-15T15:55:29.798Z,71.00
2023-11-15T15:57:57.504Z,71.01
2023-11-15T16:00:25.061Z,71.13
2023-11-15T16:02:53.782Z,70.98
2023-11-15T16:05:22.546Z,70.79
2023-11-15T16:07:49.946Z,70.70
2023-11-15T16:10:20.180Z,70.83
2023-11-15T16:12:48.924Z,70.88
2023-11-15T16:15:18.843Z,70.89
2023-11-15T16:17:49.436Z,70.68
2023-11-15T16:20:21.058Z,70.62
2023-11-15T16:22:48.984Z,70.61
2023-11-15T16:25:16.797Z,70.64
2023-11-15T16:27:45.069Z,70.63
2023-11-15T16:30:15.638Z,70.42
2023-11-15T16:32:45.564Z,70.60
2023-11-15T16:35:13.583Z,70.79
2023-11-15T16:37:43.000Z,70.87
2023-11-15T16:40:11.715Z,70.71
2023-11-15T16:42:39.705Z,70.45
2023-11-15T16:45:08.541Z,70.35
2023-11-15T16:47:36.567Z,70.76
2023-11-15T16:50:05.271Z,70.48
2023-11-15T16:52:33.716Z,70.53
2023-11-15T16:55:06.379Z,70.46
2023-11-15T16:57:33.792Z,70.50
2023-11-15T17:00:01.442Z,70.55
2023-11-15T17:02:29.302Z,70.69
2023-11-15T17:04:56.992Z,70.80
2023-11-15T17:07:24.712Z,70.48
2023-11-15T17:10:20.521Z,70.45
2023-11-15T17:13:03.872Z,70.41
2023-11-15T17:15:32.290Z,70.38
2023-11-15T17:17:59.876Z,70.61
2023-11-15T17:20:27.569Z,70.62
2023-11-15T17:22:55.173Z,70.69
2023-11-15T17:25:22.454Z,70.53
2023-11-15T17:27:50.860Z,70.46
2023-11-15T17:30:20.650Z,70.48
2023-11-15T17:32:48.123Z,70.55
2023-11-15T17:35:15.684Z,70.73
2023-11-15T17:37:44.466Z,70.57
2023-11-15T17:40:13.602Z,70.63
2023-11-15T17:42:41.018Z,70.57
2023-11-15T17:45:08.967Z,70.53
2023-11-15T17:47:36.316Z,70.46
2023-11-15T17:50:05.054Z,70.58
2023-11-15T17:52:33.350Z,70.51
2023-11-15T17:55:00.688Z,70.74
2023-11-15T17:57:34.229Z,70.61
2023-11-15T18:00:05.977Z,70.53
2023-11-15T18:02:39.141Z,70.60
2023-11-15T18:05:19.088Z,70.77
2023-11-15T18:08:07.086Z,70.65
2023-11-15T18:10:52.978Z,70.61
2023-11-15T18:13:42.541Z,70.89
2023-11-15T18:16:31.484Z,70.92
2023-11-15T18:19:18.172Z,70.87
2023-11-15T18:22:01.583Z,70.77
2023-11-15T18:24:42.571Z,70.77
2023-11-15T18:27:16.363Z,70.86
2023-11-15T18:29:49.658Z,70.89
2023-11-15T18:32:37.930Z,70.89
2023-11-15T18:35:17.540Z,71.10
2023-11-15T18:37:59.093Z,71.11
2023-11-15T18:40:47.551Z,71.09
2023-11-15T18:43:23.474Z,70.97
2023-11-15T18:45:51.365Z,70.92
2023-11-15T18:48:18.797Z,70.88
2023-11-15T18:50:47.546Z,71.03
2023-11-15T18:53:15.978Z,71.11
2023-11-15T18:55:43.854Z,71.17
2023-11-15T18:58:11.386Z,71.23
2023-11-15T19:00:39.050Z,71.06
2023-11-15T19:03:06.595Z,71.24
2023-11-15T19:05:34.706Z,71.14
2023-11-15T19:08:02.577Z,71.32
2023-11-15T19:10:31.010Z,71.31
2023-11-15T19:12:59.286Z,71.23
2023-11-15T19:15:26.689Z,71.42
2023-11-15T19:17:54.485Z,71.25
2023-11-15T19:20:23.694Z,71.00
2023-11-15T19:22:52.116Z,71.20
2023-11-15T19:25:19.901Z,71.37
2023-11-15T19:27:48.378Z,71.39
2023-11-15T19:30:17.624Z,71.16
2023-11-15T19:32:45.455Z,71.08
2023-11-15T19:35:15.940Z,71.14
2023-11-15T19:37:47.602Z,71.25
2023-11-15T19:40:15.766Z,71.43
2023-11-15T19:42:43.703Z,71.50
2023-11-15T19:45:11.906Z,71.58
2023-11-15T19:47:40.870Z,71.57
2023-11-15T19:50:08.528Z,71.41
2023-11-15T19:52:36.694Z,71.79
2023-11-15T19:55:07.943Z,71.72
2023-11-15T19:57:38.505Z,71.81
2023-11-15T20:00:12.946Z,71.71
2023-11-15T20:02:46.827Z,72.04
2023-11-15T20:05:17.378Z,71.98
2023-11-15T20:07:44.981Z,71.97
2023-11-15T20:10:13.717Z,71.99
2023-11-15T20:12:43.466Z,72.04
2023-11-15T20:15:11.520Z,72.11
2023-11-15T20:17:39.838Z,72.29
2023-11-15T20:20:08.375Z,72.13
2023-11-15T20:22:45.340Z,72.37
2023-11-15T20:25:20.122Z,72.29
2023-11-15T20:27:48.302Z,71.96
2023-11-15T20:30:21.621Z,71.91
2023-11-15T20:32:49.883Z,71.95
2023-11-15T20:35:17.861Z,71.91
2023-11-15T20:37:45.592Z,71.90
2023-11-15T20:40:15.274Z,72.18
2023-11-15T20:42:48.268Z,72.20
2023-11-15T20:45:16.990Z,72.11
2023-11-15T20:47:45.640Z,72.22
2023-11-15T20:50:13.228Z,72.35
2023-11-15T20:52:41.547Z,72.33
2023-11-15T20:55:10.792Z,72.58
2023-11-15T20:57:39.499Z,72.62
2023-11-15T21:00:16.932Z,72.81
2023-11-15T21:02:44.717Z,72.84
2023-11-15T21:05:12.916Z,72.60
2023-11-15T21:07:41.189Z,72.83
2023-11-15T21:10:08.858Z,72.80
2023-11-15T21:12:36.482Z,72.72
2023-11-15T21:15:07.732Z,72.70
2023-11-15T21:17:35.509Z,72.87
2023-11-15T21:20:15.404Z,72.82
2023-11-15T21:22:44.467Z,73.10
2023-11-15T21:25:17.578Z,73.16
2023-11-15T21:27:45.379Z,72.97
2023-11-15T21:30:13.761Z,73.13
2023-11-15T21:32:42.989Z,73.19
2023-11-15T21:35:11.752Z,73.22
2023-11-15T21:37:43.919Z,73.16
2023-11-15T21:40:19.596Z,73.32
2023-11-15T21:42:49.710Z,73.29
2023-11-15T21:45:18.551Z,73.33
2023-11-15T21:47:47.370Z,73.20
2023-11-15T21:50:22.143Z,73.15
2023-11-15T21:52:51.274Z,73.27
2023-11-15T21:55:19.019Z,73.20
2023-11-15T21:57:49.200Z,73.50
2023-11-15T22:00:21.331Z,73.73
2023-11-15T22:02:49.516Z,73.81
2023-11-15T22:05:18.614Z,73.96
2023-11-15T22:07:46.038Z,73.81
2023-11-15T22:10:16.505Z,73.72
2023-11-15T22:12:44.736Z,73.77
2023-11-15T22:15:12.581Z,73.78
2023-11-15T22:17:40.986Z,73.86
2023-11-15T22:20:11.609Z,74.08
2023-11-15T22:22:39.967Z,74.23
2023-11-15T22:25:07.517Z,74.28
2023-11-15T22:27:35.210Z,74.22
2023-11-15T22:30:03.306Z,74.43
2023-11-15T22:32:30.763Z,74.31
2023-11-15T22:34:58.431Z,74.49
2023-11-15T22:37:25.988Z,74.45
2023-11-15T22:39:53.511Z,74.52
2023-11-15T22:42:21.062Z,74.42
2023-11-15T22:44:51.056Z,74.71
2023-11-15T22:47:18.616Z,74.74
2023-11-15T22:49:46.861Z,74.60
2023-11-15T22:52:14.240Z,74.69
2023-11-15T22:54:41.866Z,74.71
2023-11-15T22:57:09.582Z,74.85
2023-11-15T22:59:37.998Z,74.86
2023-11-15T23:02:05.749Z,74.90
2023-11-15T23:04:33.528Z,75.08
2023-11-15T23:07:01.705Z,75.18
2023-11-15T23:09:29.858Z,75.08
2023-11-15T23:11:57.279Z,75.28
2023-11-15T23:14:24.667Z,75.15
2023-11-15T23:16:52.289Z,75.05
2023-11-15T23:19:21.175Z,75.21
2023-11-15T23:21:55.346Z,75.37
2023-11-15T23:24:29.698Z,75.18
2023-11-15T23:26:59.095Z,75.45
2023-11-15T23:29:28.289Z,75.49
2023-11-15T23:31:56.719Z,75.59
2023-11-15T23:34:24.745Z,75.63
2023-11-15T23:36:52.296Z,75.53
2023-11-15T23:39:23.601Z,75.43
2023-11-15T23:41:51.095Z,75.45
2023-11-15T23:44:19.003Z,75.48
2023-11-15T23:46:49.978Z,75.73
2023-11-15T23:49:19.676Z,75.62
2023-11-15T23:51:47.070Z,75.77
2023-11-15T23:54:14.637Z,75.93
2023-11-15T23:56:42.709Z,75.90
2023-11-15T23:59:10.133Z,75.80
